sensor_id;sensor_type;location;lat;lon;timestamp;P1;durP1;ratioP1;P2;durP2;ratioP2
41309;SDS011;27057;51.438;-0.010;2023-04-01T00:01:11;27.08;;;14.32;;
41309;SDS011;27057;51.438;-0.010;2023-04-01T00:03:44;25.05;;;13.30;;
41309;SDS011;27057;51.438;-0.010;2023-04-01T00:06:12;26.27;;;13.55;;
41309;SDS011;27057;51.438;-0.010;2023-04-01T00:08:42;26.95;;;13.88;;
41309;SDS011;27057;51.438;-0.010;2023-04-01T00:11:09;25.90;;;13.65;;
41309;SDS011;27057;51.438;-0.010;2023-04-01T00:13:38;23.25;;;13.30;;
41309;SDS011;27057;51.438;-0.010;2023-04-01T00:16:05;20.85;;;9.98;;
41309;SDS011;27057;51.438;-0.010;2023-04-01T00:18:46;24.80;;;13.75;;
41309;SDS011;27057;51.438;-0.010;2023-04-01T00:21:14;30.30;;;13.30;;
41309;SDS011;27057;51.438;-0.010;2023-04-01T00:23:42;27.10;;;13.18;;
41309;SDS011;27057;51.438;-0.010;2023-04-01T00:26:10;28.27;;;14.07;;
41309;SDS011;27057;51.438;-0.010;2023-04-01T00:28:39;27.33;;;11.10;;
41309;SDS011;27057;51.438;-0.010;2023-04-01T00:31:08;24.05;;;12.25;;
41309;SDS011;27057;51.438;-0.010;2023-04-01T00:33:46;30.92;;;14.75;;
41309;SDS011;27057;51.438;-0.010;2023-04-01T00:36:16;30.98;;;14.25;;
41309;SDS011;27057;51.438;-0.010;2023-04-01T00:38:45;31.70;;;14.48;;
41309;SDS011;27057;51.438;-0.010;2023-04-01T00:41:14;27.20;;;13.52;;
41309;SDS011;27057;51.438;-0.010;2023-04-01T00:43:45;30.10;;;15.32;;
41309;SDS011;27057;51.438;-0.010;2023-04-01T00:46:13;28.25;;;14.77;;
41309;SDS011;27057;51.438;-0.010;2023-04-01T00:48:43;24.50;;;13.07;;
41309;SDS011;27057;51.438;-0.010;2023-04-01T00:51:16;23.63;;;13.40;;
41309;SDS011;27057;51.438;-0.010;2023-04-01T00:53:51;23.88;;;12.23;;
41309;SDS011;27057;51.438;-0.010;2023-04-01T00:56:24;16.98;;;10.82;;
41309;SDS011;27057;51.438;-0.010;2023-04-01T00:59:01;19.90;;;11.55;;
41309;SDS011;27057;51.438;-0.010;2023-04-01T01:01:46;23.90;;;12.38;;
41309;SDS011;27057;51.438;-0.010;2023-04-01T01:04:35;18.52;;;10.50;;
41309;SDS011;27057;51.438;-0.010;2023-04-01T01:10:03;18.05;;;8.82;;
41309;SDS011;27057;51.438;-0.010;2023-04-01T01:21:30;18.90;;;10.48;;
41309;SDS011;27057;51.438;-0.010;2023-04-01T01:35:48;8.60;;;5.10;;
41309;SDS011;27057;51.438;-0.010;2023-04-01T01:38:21;7.85;;;4.28;;
41309;SDS011;27057;51.438;-0.010;2023-04-01T01:40:59;8.80;;;4.65;;
41309;SDS011;27057;51.438;-0.010;2023-04-01T01:43:30;7.05;;;4.40;;
41309;SDS011;27057;51.438;-0.010;2023-04-01T01:46:18;8.80;;;3.95;;
41309;SDS011;27057;51.438;-0.010;2023-04-01T01:48:48;8.63;;;4.05;;
41309;SDS011;27057;51.438;-0.010;2023-04-01T01:51:18;6.28;;;3.83;;
41309;SDS011;27057;51.438;-0.010;2023-04-01T01:53:46;6.45;;;3.67;;
41309;SDS011;27057;51.438;-0.010;2023-04-01T01:56:15;9.43;;;3.95;;
41309;SDS011;27057;51.438;-0.010;2023-04-01T01:58:47;7.53;;;4.18;;
41309;SDS011;27057;51.438;-0.010;2023-04-01T02:01:21;8.05;;;4.40;;
41309;SDS011;27057;51.438;-0.010;2023-04-01T02:04:01;7.50;;;4.85;;
41309;SDS011;27057;51.438;-0.010;2023-04-01T02:06:32;9.13;;;4.60;;
41309;SDS011;27057;51.438;-0.010;2023-04-01T02:09:04;6.22;;;4.05;;
41309;SDS011;27057;51.438;-0.010;2023-04-01T02:11:36;9.27;;;4.88;;
41309;SDS011;27057;51.438;-0.010;2023-04-01T02:14:13;6.65;;;4.05;;
41309;SDS011;27057;51.438;-0.010;2023-04-01T02:19:32;9.70;;;4.18;;
41309;SDS011;27057;51.438;-0.010;2023-04-01T02:22:11;7.57;;;4.35;;
41309;SDS011;27057;51.438;-0.010;2023-04-01T02:24:43;8.45;;;4.40;;
41309;SDS011;27057;51.438;-0.010;2023-04-01T02:27:12;8.40;;;4.28;;
41309;SDS011;27057;51.438;-0.010;2023-04-01T02:29:39;8.10;;;4.15;;
41309;SDS011;27057;51.438;-0.010;2023-04-01T02:32:07;8.60;;;4.32;;
41309;SDS011;27057;51.438;-0.010;2023-04-01T02:34:36;8.07;;;4.78;;
41309;SDS011;27057;51.438;-0.010;2023-04-01T02:37:03;6.32;;;4.20;;
41309;SDS011;27057;51.438;-0.010;2023-04-01T02:39:31;8.85;;;4.20;;
41309;SDS011;27057;51.438;-0.010;2023-04-01T02:41:59;8.75;;;4.22;;
41309;SDS011;27057;51.438;-0.010;2023-04-01T02:44:26;8.93;;;4.30;;
41309;SDS011;27057;51.438;-0.010;2023-04-01T02:46:54;5.60;;;3.58;;
41309;SDS011;27057;51.438;-0.010;2023-04-01T02:49:21;8.07;;;3.90;;
41309;SDS011;27057;51.438;-0.010;2023-04-01T02:51:48;7.80;;;3.35;;
41309;SDS011;27057;51.438;-0.010;2023-04-01T02:54:16;4.97;;;2.97;;
41309;SDS011;27057;51.438;-0.010;2023-04-01T02:56:44;7.15;;;3.50;;
41309;SDS011;27057;51.438;-0.010;2023-04-01T02:59:12;5.85;;;3.03;;
41309;SDS011;27057;51.438;-0.010;2023-04-01T03:01:39;8.23;;;3.45;;
41309;SDS011;27057;51.438;-0.010;2023-04-01T03:04:07;4.97;;;3.30;;
41309;SDS011;27057;51.438;-0.010;2023-04-01T03:06:34;4.95;;;3.70;;
41309;SDS011;27057;51.438;-0.010;2023-04-01T03:09:02;5.78;;;3.47;;
41309;SDS011;27057;51.438;-0.010;2023-04-01T03:11:30;4.88;;;3.47;;
41309;SDS011;27057;51.438;-0.010;2023-04-01T03:13:57;3.92;;;3.00;;
41309;SDS011;27057;51.438;-0.010;2023-04-01T03:16:24;5.43;;;3.30;;
41309;SDS011;27057;51.438;-0.010;2023-04-01T03:18:52;8.70;;;3.58;;
41309;SDS011;27057;51.438;-0.010;2023-04-01T03:21:22;7.53;;;3.22;;
41309;SDS011;27057;51.438;-0.010;2023-04-01T03:23:50;3.88;;;2.65;;
41309;SDS011;27057;51.438;-0.010;2023-04-01T03:26:18;4.45;;;3.00;;
41309;SDS011;27057;51.438;-0.010;2023-04-01T03:28:48;5.28;;;3.25;;
41309;SDS011;27057;51.438;-0.010;2023-04-01T03:31:16;6.15;;;3.40;;
41309;SDS011;27057;51.438;-0.010;2023-04-01T03:33:49;5.13;;;2.58;;
41309;SDS011;27057;51.438;-0.010;2023-04-01T03:36:17;7.38;;;3.25;;
41309;SDS011;27057;51.438;-0.010;2023-04-01T03:38:45;5.88;;;3.00;;
41309;SDS011;27057;51.438;-0.010;2023-04-01T03:41:18;4.15;;;3.17;;
41309;SDS011;27057;51.438;-0.010;2023-04-01T03:43:46;5.40;;;2.83;;
41309;SDS011;27057;51.438;-0.010;2023-04-01T03:46:18;9.68;;;2.65;;
41309;SDS011;27057;51.438;-0.010;2023-04-01T03:48:47;4.53;;;2.78;;
41309;SDS011;27057;51.438;-0.010;2023-04-01T03:51:14;4.18;;;3.05;;
41309;SDS011;27057;51.438;-0.010;2023-04-01T03:53:43;5.85;;;3.40;;
41309;SDS011;27057;51.438;-0.010;2023-04-01T03:56:11;4.70;;;3.13;;
41309;SDS011;27057;51.438;-0.010;2023-04-01T03:58:39;4.38;;;2.95;;
41309;SDS011;27057;51.438;-0.010;2023-04-01T04:01:15;4.38;;;2.97;;
41309;SDS011;27057;51.438;-0.010;2023-04-01T04:03:44;5.80;;;2.72;;
41309;SDS011;27057;51.438;-0.010;2023-04-01T04:06:13;10.15;;;2.60;;
41309;SDS011;27057;51.438;-0.010;2023-04-01T04:08:41;4.22;;;2.80;;
41309;SDS011;27057;51.438;-0.010;2023-04-01T04:11:09;3.83;;;2.75;;
41309;SDS011;27057;51.438;-0.010;2023-04-01T04:13:40;4.50;;;2.92;;
41309;SDS011;27057;51.438;-0.010;2023-04-01T04:16:09;4.40;;;2.80;;
41309;SDS011;27057;51.438;-0.010;2023-04-01T04:18:42;4.63;;;3.03;;
41309;SDS011;27057;51.438;-0.010;2023-04-01T04:21:13;5.57;;;2.53;;
41309;SDS011;27057;51.438;-0.010;2023-04-01T04:23:42;4.43;;;2.75;;
41309;SDS011;27057;51.438;-0.010;2023-04-01T04:26:12;4.93;;;2.85;;
41309;SDS011;27057;51.438;-0.010;2023-04-01T04:28:47;4.40;;;2.80;;
41309;SDS011;27057;51.438;-0.010;2023-04-01T04:31:23;5.35;;;3.05;;
41309;SDS011;27057;51.438;-0.010;2023-04-01T04:33:55;5.43;;;2.58;;
41309;SDS011;27057;51.438;-0.010;2023-04-01T04:36:22;10.10;;;2.38;;
41309;SDS011;27057;51.438;-0.010;2023-04-01T04:38:51;6.60;;;2.72;;
41309;SDS011;27057;51.438;-0.010;2023-04-01T04:41:19;8.45;;;2.55;;
41309;SDS011;27057;51.438;-0.010;2023-04-01T04:43:53;6.88;;;3.50;;
41309;SDS011;27057;51.438;-0.010;2023-04-01T04:46:24;6.85;;;2.70;;
41309;SDS011;27057;51.438;-0.010;2023-04-01T04:48:58;10.45;;;3.65;;
41309;SDS011;27057;51.438;-0.010;2023-04-01T04:51:26;5.80;;;3.15;;
41309;SDS011;27057;51.438;-0.010;2023-04-01T04:53:54;5.32;;;3.15;;
41309;SDS011;27057;51.438;-0.010;2023-04-01T04:56:32;4.70;;;3.30;;
41309;SDS011;27057;51.438;-0.010;2023-04-01T04:59:04;7.88;;;3.22;;
41309;SDS011;27057;51.438;-0.010;2023-04-01T05:01:44;5.88;;;2.63;;
41309;SDS011;27057;51.438;-0.010;2023-04-01T05:04:13;6.20;;;3.13;;
41309;SDS011;27057;51.438;-0.010;2023-04-01T05:06:41;4.07;;;2.72;;
41309;SDS011;27057;51.438;-0.010;2023-04-01T05:09:10;6.25;;;2.97;;
41309;SDS011;27057;51.438;-0.010;2023-04-01T05:11:39;5.25;;;3.30;;
41309;SDS011;27057;51.438;-0.010;2023-04-01T05:14:11;6.22;;;3.42;;
41309;SDS011;27057;51.438;-0.010;2023-04-01T05:16:50;3.40;;;2.50;;
41309;SDS011;27057;51.438;-0.010;2023-04-01T05:19:17;4.35;;;2.58;;
41309;SDS011;27057;51.438;-0.010;2023-04-01T05:21:45;4.97;;;3.35;;
41309;SDS011;27057;51.438;-0.010;2023-04-01T05:24:16;5.43;;;3.15;;
41309;SDS011;27057;51.438;-0.010;2023-04-01T05:26:47;9.45;;;3.30;;
41309;SDS011;27057;51.438;-0.010;2023-04-01T05:29:15;8.35;;;3.83;;
41309;SDS011;27057;51.438;-0.010;2023-04-01T05:31:46;8.00;;;3.58;;
41309;SDS011;27057;51.438;-0.010;2023-04-01T05:34:13;6.78;;;3.70;;
41309;SDS011;27057;51.438;-0.010;2023-04-01T05:36:41;5.53;;;3.55;;
41309;SDS011;27057;51.438;-0.010;2023-04-01T05:39:09;4.80;;;3.22;;
41309;SDS011;27057;51.438;-0.010;2023-04-01T05:41:38;6.30;;;3.40;;
41309;SDS011;27057;51.438;-0.010;2023-04-01T05:44:07;5.43;;;3.60;;
41309;SDS011;27057;51.438;-0.010;2023-04-01T05:46:39;4.38;;;2.92;;
41309;SDS011;27057;51.438;-0.010;2023-04-01T05:49:19;3.53;;;2.80;;
41309;SDS011;27057;51.438;-0.010;2023-04-01T05:51:48;11.52;;;3.65;;
41309;SDS011;27057;51.438;-0.010;2023-04-01T05:54:18;7.45;;;4.10;;
41309;SDS011;27057;51.438;-0.010;2023-04-01T05:56:46;7.65;;;4.20;;
41309;SDS011;27057;51.438;-0.010;2023-04-01T05:59:17;9.23;;;4.15;;
41309;SDS011;27057;51.438;-0.010;2023-04-01T06:01:46;10.35;;;4.75;;
41309;SDS011;27057;51.438;-0.010;2023-04-01T06:04:15;11.75;;;5.25;;
41309;SDS011;27057;51.438;-0.010;2023-04-01T06:06:46;12.13;;;5.45;;
41309;SDS011;27057;51.438;-0.010;2023-04-01T06:12:02;7.07;;;3.80;;
41309;SDS011;27057;51.438;-0.010;2023-04-01T06:17:51;7.47;;;4.13;;
41309;SDS011;27057;51.438;-0.010;2023-04-01T06:21:15;8.73;;;4.15;;
41309;SDS011;27057;51.438;-0.010;2023-04-01T06:24:17;7.90;;;4.47;;
41309;SDS011;27057;51.438;-0.010;2023-04-01T06:29:55;6.78;;;3.90;;
41309;SDS011;27057;51.438;-0.010;2023-04-01T06:55:57;7.85;;;4.78;;
41309;SDS011;27057;51.438;-0.010;2023-04-01T06:58:53;10.93;;;5.10;;
41309;SDS011;27057;51.438;-0.010;2023-04-01T07:01:29;7.75;;;4.55;;
41309;SDS011;27057;51.438;-0.010;2023-04-01T07:04:16;10.57;;;4.95;;
41309;SDS011;27057;51.438;-0.010;2023-04-01T07:09:31;13.18;;;5.20;;
41309;SDS011;27057;51.438;-0.010;2023-04-01T07:15:21;10.95;;;6.10;;
41309;SDS011;27057;51.438;-0.010;2023-04-01T07:17:59;9.05;;;4.45;;
41309;SDS011;27057;51.438;-0.010;2023-04-01T07:20:34;15.73;;;5.53;;
41309;SDS011;27057;51.438;-0.010;2023-04-01T07:23:05;22.10;;;6.57;;
41309;SDS011;27057;51.438;-0.010;2023-04-01T07:26:20;9.43;;;4.82;;
41309;SDS011;27057;51.438;-0.010;2023-04-01T07:29:08;14.38;;;5.53;;
41309;SDS011;27057;51.438;-0.010;2023-04-01T07:32:07;9.48;;;6.05;;
41309;SDS011;27057;51.438;-0.010;2023-04-01T07:52:23;14.77;;;5.40;;
41309;SDS011;27057;51.438;-0.010;2023-04-01T07:58:19;12.38;;;6.15;;
41309;SDS011;27057;51.438;-0.010;2023-04-01T08:01:10;12.43;;;6.00;;
41309;SDS011;27057;51.438;-0.010;2023-04-01T08:04:23;12.23;;;5.30;;
41309;SDS011;27057;51.438;-0.010;2023-04-01T08:07:17;12.32;;;6.72;;
41309;SDS011;27057;51.438;-0.010;2023-04-01T08:10:16;17.50;;;7.57;;
41309;SDS011;27057;51.438;-0.010;2023-04-01T08:17:08;18.75;;;9.15;;
41309;SDS011;27057;51.438;-0.010;2023-04-01T08:22:01;17.80;;;7.97;;
41309;SDS011;27057;51.438;-0.010;2023-04-01T08:27:56;16.17;;;6.82;;
41309;SDS011;27057;51.438;-0.010;2023-04-01T08:33:37;14.35;;;6.07;;
41309;SDS011;27057;51.438;-0.010;2023-04-01T08:36:26;14.25;;;5.82;;
41309;SDS011;27057;51.438;-0.010;2023-04-01T08:39:16;10.75;;;5.45;;
41309;SDS011;27057;51.438;-0.010;2023-04-01T08:47:45;13.73;;;6.28;;
41309;SDS011;27057;51.438;-0.010;2023-04-01T09:05:22;15.90;;;6.55;;
41309;SDS011;27057;51.438;-0.010;2023-04-01T09:22:50;7.68;;;3.70;;
41309;SDS011;27057;51.438;-0.010;2023-04-01T09:31:00;10.90;;;5.35;;
41309;SDS011;27057;51.438;-0.010;2023-04-01T09:40:17;13.13;;;5.63;;
41309;SDS011;27057;51.438;-0.010;2023-04-01T10:04:08;11.35;;;4.18;;
41309;SDS011;27057;51.438;-0.010;2023-04-01T10:07:21;8.38;;;3.42;;
41309;SDS011;27057;51.438;-0.010;2023-04-01T10:22:16;18.08;;;5.35;;
41309;SDS011;27057;51.438;-0.010;2023-04-01T10:56:28;9.82;;;5.22;;
41309;SDS011;27057;51.438;-0.010;2023-04-01T10:59:32;13.38;;;5.20;;
41309;SDS011;27057;51.438;-0.010;2023-04-01T11:09:10;20.25;;;6.25;;
41309;SDS011;27057;51.438;-0.010;2023-04-01T11:17:59;15.93;;;6.82;;
41309;SDS011;27057;51.438;-0.010;2023-04-01T11:49:07;19.55;;;7.68;;
41309;SDS011;27057;51.438;-0.010;2023-04-01T11:52:01;19.88;;;6.57;;
41309;SDS011;27057;51.438;-0.010;2023-04-01T12:08:27;13.05;;;4.93;;
41309;SDS011;27057;51.438;-0.010;2023-04-01T12:20:49;17.90;;;4.85;;
41309;SDS011;27057;51.438;-0.010;2023-04-01T12:38:19;9.88;;;3.00;;
41309;SDS011;27057;51.438;-0.010;2023-04-01T12:44:20;19.35;;;4.07;;
41309;SDS011;27057;51.438;-0.010;2023-04-01T12:50:16;17.10;;;3.35;;
41309;SDS011;27057;51.438;-0.010;2023-04-01T12:55:58;12.13;;;3.28;;
41309;SDS011;27057;51.438;-0.010;2023-04-01T13:02:19;9.82;;;3.17;;
41309;SDS011;27057;51.438;-0.010;2023-04-01T13:08:11;12.43;;;3.10;;
41309;SDS011;27057;51.438;-0.010;2023-04-01T13:11:02;9.70;;;3.60;;
41309;SDS011;27057;51.438;-0.010;2023-04-01T13:22:46;8.68;;;3.50;;
41309;SDS011;27057;51.438;-0.010;2023-04-01T13:35:25;9.00;;;3.25;;
41309;SDS011;27057;51.438;-0.010;2023-04-01T14:04:20;5.47;;;1.95;;
41309;SDS011;27057;51.438;-0.010;2023-04-01T14:10:13;10.02;;;1.98;;
41309;SDS011;27057;51.438;-0.010;2023-04-01T14:12:58;4.57;;;1.95;;
41309;SDS011;27057;51.438;-0.010;2023-04-01T14:15:55;5.80;;;2.33;;
41309;SDS011;27057;51.438;-0.010;2023-04-01T14:18:40;5.45;;;2.13;;
41309;SDS011;27057;51.438;-0.010;2023-04-01T14:33:23;7.10;;;2.30;;
41309;SDS011;27057;51.438;-0.010;2023-04-01T14:39:11;8.75;;;2.38;;
41309;SDS011;27057;51.438;-0.010;2023-04-01T14:45:12;10.35;;;3.20;;
41309;SDS011;27057;51.438;-0.010;2023-04-01T14:49:00;16.90;;;4.50;;
41309;SDS011;27057;51.438;-0.010;2023-04-01T14:51:47;10.05;;;3.38;;
41309;SDS011;27057;51.438;-0.010;2023-04-01T14:55:10;6.85;;;3.05;;
41309;SDS011;27057;51.438;-0.010;2023-04-01T14:58:41;8.13;;;3.17;;
41309;SDS011;27057;51.438;-0.010;2023-04-01T15:11:47;10.80;;;3.80;;
41309;SDS011;27057;51.438;-0.010;2023-04-01T15:25:39;11.00;;;4.20;;
41309;SDS011;27057;51.438;-0.010;2023-04-01T15:34:32;22.48;;;4.13;;
41309;SDS011;27057;51.438;-0.010;2023-04-01T15:37:18;13.98;;;4.38;;
41309;SDS011;27057;51.438;-0.010;2023-04-01T15:42:52;8.80;;;3.90;;
41309;SDS011;27057;51.438;-0.010;2023-04-01T15:45:41;13.48;;;4.63;;
41309;SDS011;27057;51.438;-0.010;2023-04-01T15:57:08;14.43;;;4.65;;
41309;SDS011;27057;51.438;-0.010;2023-04-01T16:11:18;10.07;;;5.07;;
41309;SDS011;27057;51.438;-0.010;2023-04-01T16:20:17;15.35;;;5.70;;
41309;SDS011;27057;51.438;-0.010;2023-04-01T16:25:41;9.20;;;4.70;;
41309;SDS011;27057;51.438;-0.010;2023-04-01T16:28:32;11.65;;;4.78;;
41309;SDS011;27057;51.438;-0.010;2023-04-01T16:31:12;16.90;;;4.78;;
41309;SDS011;27057;51.438;-0.010;2023-04-01T16:36:55;11.13;;;4.50;;
41309;SDS011;27057;51.438;-0.010;2023-04-01T16:42:16;20.15;;;5.47;;
41309;SDS011;27057;51.438;-0.010;2023-04-01T16:47:30;14.38;;;6.38;;
41309;SDS011;27057;51.438;-0.010;2023-04-01T16:50:23;15.30;;;5.93;;
41309;SDS011;27057;51.438;-0.010;2023-04-01T16:53:09;15.30;;;5.50;;
41309;SDS011;27057;51.438;-0.010;2023-04-01T16:55:49;15.10;;;5.15;;
41309;SDS011;27057;51.438;-0.010;2023-04-01T16:58:27;9.77;;;4.50;;
41309;SDS011;27057;51.438;-0.010;2023-04-01T17:01:14;10.48;;;4.30;;
41309;SDS011;27057;51.438;-0.010;2023-04-01T17:03:51;9.77;;;4.22;;
41309;SDS011;27057;51.438;-0.010;2023-04-01T17:07:10;16.30;;;4.95;;
41309;SDS011;27057;51.438;-0.010;2023-04-01T17:09:51;11.48;;;4.15;;
41309;SDS011;27057;51.438;-0.010;2023-04-01T17:12:32;12.27;;;4.50;;
41309;SDS011;27057;51.438;-0.010;2023-04-01T17:15:21;12.43;;;4.22;;
41309;SDS011;27057;51.438;-0.010;2023-04-01T17:20:43;10.65;;;4.70;;
41309;SDS011;27057;51.438;-0.010;2023-04-01T17:23:34;15.20;;;4.38;;
41309;SDS011;27057;51.438;-0.010;2023-04-01T17:31:53;8.98;;;5.07;;
41309;SDS011;27057;51.438;-0.010;2023-04-01T17:41:03;8.60;;;3.78;;
41309;SDS011;27057;51.438;-0.010;2023-04-01T17:44:08;14.57;;;4.25;;
41309;SDS011;27057;51.438;-0.010;2023-04-01T17:49:49;9.80;;;4.75;;
41309;SDS011;27057;51.438;-0.010;2023-04-01T18:00:39;12.13;;;5.25;;
41309;SDS011;27057;51.438;-0.010;2023-04-01T18:22:21;13.23;;;4.40;;
41309;SDS011;27057;51.438;-0.010;2023-04-01T18:30:39;9.55;;;3.50;;
41309;SDS011;27057;51.438;-0.010;2023-04-01T18:33:25;6.97;;;3.50;;
41309;SDS011;27057;51.438;-0.010;2023-04-01T18:36:13;16.38;;;4.18;;
41309;SDS011;27057;51.438;-0.010;2023-04-01T18:38:47;9.02;;;3.47;;
41309;SDS011;27057;51.438;-0.010;2023-04-01T18:47:21;5.80;;;3.95;;
41309;SDS011;27057;51.438;-0.010;2023-04-01T18:50:20;7.07;;;3.47;;
41309;SDS011;27057;51.438;-0.010;2023-04-01T18:56:00;9.75;;;3.15;;
41309;SDS011;27057;51.438;-0.010;2023-04-01T18:58:58;10.80;;;4.32;;
41309;SDS011;27057;51.438;-0.010;2023-04-01T19:01:39;18.42;;;4.32;;
41309;SDS011;27057;51.438;-0.010;2023-04-01T19:04:26;5.97;;;3.38;;
41309;SDS011;27057;51.438;-0.010;2023-04-01T19:15:39;6.75;;;3.20;;
41309;SDS011;27057;51.438;-0.010;2023-04-01T19:18:36;3.80;;;2.72;;
41309;SDS011;27057;51.438;-0.010;2023-04-01T19:26:45;5.88;;;3.40;;
41309;SDS011;27057;51.438;-0.010;2023-04-01T19:32:12;6.95;;;3.88;;
41309;SDS011;27057;51.438;-0.010;2023-04-01T19:37:51;4.60;;;2.42;;
41309;SDS011;27057;51.438;-0.010;2023-04-01T19:40:32;11.63;;;3.95;;
41309;SDS011;27057;51.438;-0.010;2023-04-01T19:43:27;12.63;;;4.18;;
41309;SDS011;27057;51.438;-0.010;2023-04-01T19:46:35;6.95;;;2.90;;
41309;SDS011;27057;51.438;-0.010;2023-04-01T19:49:29;9.98;;;3.20;;
41309;SDS011;27057;51.438;-0.010;2023-04-01T19:52:14;9.05;;;2.83;;
41309;SDS011;27057;51.438;-0.010;2023-04-01T19:54:56;5.28;;;2.92;;
41309;SDS011;27057;51.438;-0.010;2023-04-01T20:06:43;7.30;;;3.25;;
41309;SDS011;27057;51.438;-0.010;2023-04-01T20:09:39;11.05;;;3.38;;
41309;SDS011;27057;51.438;-0.010;2023-04-01T20:15:21;7.90;;;2.85;;
41309;SDS011;27057;51.438;-0.010;2023-04-01T20:17:49;11.43;;;3.30;;
41309;SDS011;27057;51.438;-0.010;2023-04-01T20:20:28;7.07;;;3.35;;
41309;SDS011;27057;51.438;-0.010;2023-04-01T20:26:11;10.32;;;3.38;;
41309;SDS011;27057;51.438;-0.010;2023-04-01T20:28:50;5.95;;;2.78;;
41309;SDS011;27057;51.438;-0.010;2023-04-01T20:31:44;6.00;;;2.97;;
41309;SDS011;27057;51.438;-0.010;2023-04-01T20:34:31;6.03;;;2.70;;
41309;SDS011;27057;51.438;-0.010;2023-04-01T20:37:28;6.28;;;2.33;;
41309;SDS011;27057;51.438;-0.010;2023-04-01T20:40:17;3.72;;;2.15;;
41309;SDS011;27057;51.438;-0.010;2023-04-01T20:45:58;8.90;;;2.50;;
41309;SDS011;27057;51.438;-0.010;2023-04-01T20:48:30;9.25;;;3.10;;
41309;SDS011;27057;51.438;-0.010;2023-04-01T20:53:42;5.72;;;2.78;;
41309;SDS011;27057;51.438;-0.010;2023-04-01T20:59:17;9.02;;;1.98;;
41309;SDS011;27057;51.438;-0.010;2023-04-01T21:02:11;8.70;;;2.33;;
41309;SDS011;27057;51.438;-0.010;2023-04-01T21:05:08;6.60;;;2.40;;
41309;SDS011;27057;51.438;-0.010;2023-04-01T21:13:16;6.78;;;2.40;;
41309;SDS011;27057;51.438;-0.010;2023-04-01T21:16:30;8.30;;;2.33;;
41309;SDS011;27057;51.438;-0.010;2023-04-01T21:21:43;10.80;;;2.50;;
41309;SDS011;27057;51.438;-0.010;2023-04-01T21:24:33;8.65;;;2.13;;
41309;SDS011;27057;51.438;-0.010;2023-04-01T21:27:18;6.07;;;2.38;;
41309;SDS011;27057;51.438;-0.010;2023-04-01T21:33:10;6.97;;;1.85;;
41309;SDS011;27057;51.438;-0.010;2023-04-01T21:55:17;9.40;;;2.25;;
41309;SDS011;27057;51.438;-0.010;2023-04-01T22:01:21;9.50;;;2.58;;
41309;SDS011;27057;51.438;-0.010;2023-04-01T22:06:49;7.93;;;2.40;;
41309;SDS011;27057;51.438;-0.010;2023-04-01T22:09:40;5.63;;;2.05;;
41309;SDS011;27057;51.438;-0.010;2023-04-01T22:12:12;7.10;;;2.28;;
41309;SDS011;27057;51.438;-0.010;2023-04-01T22:14:59;7.00;;;2.53;;
41309;SDS011;27057;51.438;-0.010;2023-04-01T22:17:51;4.72;;;2.10;;
41309;SDS011;27057;51.438;-0.010;2023-04-01T22:20:38;13.73;;;2.25;;
41309;SDS011;27057;51.438;-0.010;2023-04-01T22:23:23;2.08;;;1.63;;
41309;SDS011;27057;51.438;-0.010;2023-04-01T22:25:59;5.95;;;2.90;;
41309;SDS011;27057;51.438;-0.010;2023-04-01T22:31:19;2.90;;;1.67;;
41309;SDS011;27057;51.438;-0.010;2023-04-01T22:42:32;7.43;;;1.77;;
41309;SDS011;27057;51.438;-0.010;2023-04-01T22:52:59;5.17;;;1.90;;
41309;SDS011;27057;51.438;-0.010;2023-04-01T22:55:34;3.55;;;1.83;;
41309;SDS011;27057;51.438;-0.010;2023-04-01T22:58:21;4.60;;;1.40;;
41309;SDS011;27057;51.438;-0.010;2023-04-01T23:01:01;3.90;;;1.27;;
41309;SDS011;27057;51.438;-0.010;2023-04-01T23:03:40;10.85;;;1.80;;
41309;SDS011;27057;51.438;-0.010;2023-04-01T23:06:18;4.13;;;1.80;;
41309;SDS011;27057;51.438;-0.010;2023-04-01T23:11:51;2.20;;;1.45;;
41309;SDS011;27057;51.438;-0.010;2023-04-01T23:14:32;9.38;;;1.92;;
41309;SDS011;27057;51.438;-0.010;2023-04-01T23:17:04;5.28;;;1.83;;
41309;SDS011;27057;51.438;-0.010;2023-04-01T23:22:22;4.57;;;1.63;;
41309;SDS011;27057;51.438;-0.010;2023-04-01T23:27:54;6.00;;;2.30;;
41309;SDS011;27057;51.438;-0.010;2023-04-01T23:33:10;4.85;;;2.47;;
41309;SDS011;27057;51.438;-0.010;2023-04-01T23:35:47;8.05;;;1.92;;
41309;SDS011;27057;51.438;-0.010;2023-04-01T23:38:24;7.22;;;2.22;;
41309;SDS011;27057;51.438;-0.010;2023-04-01T23:40:55;9.15;;;2.65;;
41309;SDS011;27057;51.438;-0.010;2023-04-01T23:43:39;7.90;;;2.38;;
41309;SDS011;27057;51.438;-0.010;2023-04-01T23:46:09;8.68;;;2.42;;
41309;SDS011;27057;51.438;-0.010;2023-04-01T23:48:38;6.22;;;2.33;;
41309;SDS011;27057;51.438;-0.010;2023-04-01T23:51:13;7.13;;;2.03;;
41309;SDS011;27057;51.438;-0.010;2023-04-01T23:53:56;4.35;;;2.25;;
41309;SDS011;27057;51.438;-0.010;2023-04-01T23:56:38;5.20;;;2.28;;
41309;SDS011;27057;51.438;-0.010;2023-04-01T23:59:17;4.07;;;2.00;;
